createdAt,value
2024-03-02T00:07:36.749Z,58.95
2024-03-02T00:12:41.976Z,51.10
2024-03-02T00:17:44.090Z,59.97
2024-03-02T00:22:48.051Z,49.88
2024-03-02T00:27:51.666Z,57.88
2024-03-02T00:32:53.847Z,52.40
2024-03-02T00:37:56.269Z,54.15
2024-03-02T00:42:58.404Z,54.70
2024-03-02T00:48:00.397Z,57.33
2024-03-02T00:53:03.271Z,57.28
2024-03-02T00:58:05.351Z,57.38
2024-03-02T01:03:07.419Z,37.75
2024-03-02T01:08:10.228Z,59.88
2024-03-02T01:13:12.278Z,55.42
2024-03-02T01:18:14.356Z,44.95
2024-03-02T01:23:16.406Z,62.10
2024-03-02T01:28:18.663Z,58.67
2024-03-02T01:33:21.174Z,58.75
2024-03-02T01:38:23.421Z,57.95
2024-03-02T01:43:25.452Z,59.72
2024-03-02T01:48:27.576Z,58.20
2024-03-02T01:53:29.908Z,43.95
2024-03-02T01:58:31.981Z,53.78
2024-03-02T02:03:34.019Z,52.92
2024-03-02T02:08:36.107Z,52.83
2024-03-02T02:13:38.112Z,53.38
2024-03-02T02:18:40.178Z,57.55
2024-03-02T02:23:42.170Z,57.40
2024-03-02T02:28:44.164Z,53.78
2024-03-02T02:33:46.186Z,53.53
2024-03-02T02:38:48.344Z,53.38
2024-03-02T02:43:50.316Z,56.30
2024-03-02T02:48:52.463Z,60.55
2024-03-02T02:53:54.596Z,52.13
2024-03-02T02:58:56.665Z,56.10
2024-03-02T03:03:58.701Z,57.33
2024-03-02T03:09:00.798Z,44.85
2024-03-02T03:14:02.844Z,62.47
2024-03-02T03:19:04.990Z,59.80
2024-03-02T03:24:07.060Z,58.20
2024-03-02T03:29:09.132Z,62.13
2024-03-02T03:34:11.333Z,59.15
2024-03-02T03:39:13.348Z,58.05
2024-03-02T03:44:15.439Z,57.70
2024-03-02T03:49:17.446Z,57.60
2024-03-02T03:54:19.602Z,56.67
2024-03-02T03:59:21.621Z,41.88
2024-03-02T04:04:23.646Z,42.15
2024-03-02T04:09:25.729Z,61.58
2024-03-02T04:14:27.725Z,66.97
2024-03-02T04:19:29.784Z,43.50
2024-03-02T04:24:32.001Z,63.25
2024-03-02T04:29:34.077Z,60.08
2024-03-02T04:34:36.128Z,62.35
2024-03-02T04:39:38.268Z,64.63
2024-03-02T04:44:40.440Z,68.95
2024-03-02T04:49:42.528Z,68.93
2024-03-02T04:54:44.930Z,73.50
2024-03-02T04:59:47.016Z,77.47
2024-03-02T05:04:49.117Z,53.50
2024-03-02T05:09:51.200Z,79.05
2024-03-02T05:14:53.249Z,80.28
2024-03-02T05:19:55.337Z,78.43
2024-03-02T05:24:57.418Z,77.32
2024-03-02T05:29:59.772Z,51.65
2024-03-02T05:40:04.228Z,70.70
2024-03-02T05:50:08.862Z,60.72
2024-03-02T05:55:10.918Z,66.80
2024-03-02T06:00:13.336Z,66.25
2024-03-02T06:05:15.804Z,64.50
2024-03-02T06:10:17.946Z,66.72
2024-03-02T06:15:20.323Z,62.38
2024-03-02T06:20:22.335Z,62.35
2024-03-02T06:25:24.316Z,56.93
2024-03-02T06:30:26.327Z,43.40
2024-03-02T06:35:28.362Z,62.55
2024-03-02T06:40:30.301Z,54.37
2024-03-02T06:45:32.394Z,50.60
2024-03-02T06:50:34.558Z,62.47
2024-03-02T06:55:36.546Z,55.30
2024-03-02T07:00:38.660Z,60.53
2024-03-02T07:05:40.851Z,61.22
2024-03-02T07:10:42.970Z,59.72
2024-03-02T07:15:45.083Z,61.00
2024-03-02T07:20:47.107Z,64.00
2024-03-02T07:31:06.561Z,62.58
2024-03-02T07:36:08.693Z,71.43
2024-03-02T07:41:10.826Z,67.70
2024-03-02T07:46:12.928Z,63.10
2024-03-02T07:51:15.119Z,70.88
2024-03-02T07:56:17.134Z,66.60
2024-03-02T08:01:19.274Z,68.18
2024-03-02T08:06:21.357Z,66.20
2024-03-02T08:11:23.556Z,71.47
2024-03-02T08:16:25.564Z,66.95
2024-03-02T08:21:27.668Z,63.13
2024-03-02T08:26:29.619Z,63.13
2024-03-02T08:31:31.960Z,59.63
2024-03-02T08:36:34.144Z,59.72
2024-03-02T08:41:36.242Z,56.17
2024-03-02T08:46:38.239Z,61.88
2024-03-02T08:51:40.289Z,38.50
2024-03-02T08:56:42.559Z,54.47
2024-03-02T09:01:44.674Z,51.92
2024-03-02T09:06:46.694Z,51.75
2024-03-02T09:11:48.660Z,54.10
2024-03-02T09:16:50.809Z,51.53
2024-03-02T09:21:52.893Z,53.72
2024-03-02T09:26:54.988Z,47.67
2024-03-02T09:31:57.059Z,47.72
2024-03-02T09:36:59.433Z,46.78
2024-03-02T09:42:01.520Z,50.28
2024-03-02T09:47:03.623Z,49.20
2024-03-02T09:52:05.811Z,50.05
2024-03-02T09:57:08.235Z,49.10
2024-03-02T10:02:10.285Z,46.30
2024-03-02T10:07:13.855Z,53.72
2024-03-02T10:12:17.296Z,51.38
2024-03-02T10:17:19.517Z,52.40
2024-03-02T10:22:21.424Z,53.00
2024-03-02T10:27:28.673Z,49.57
2024-03-02T10:32:30.945Z,50.22
2024-03-02T10:37:33.297Z,50.78
2024-03-02T10:42:35.634Z,46.17
2024-03-02T10:47:38.545Z,52.08
2024-03-02T10:52:40.676Z,52.33
2024-03-02T10:57:53.480Z,50.67
2024-03-02T11:02:59.418Z,49.05
2024-03-02T11:08:07.923Z,53.95
2024-03-02T11:13:21.012Z,49.80
2024-03-02T11:18:23.143Z,51.13
2024-03-02T11:23:34.451Z,50.13
2024-03-02T11:28:37.056Z,50.15
2024-03-02T11:33:40.235Z,53.63
2024-03-02T11:38:42.369Z,48.47
2024-03-02T11:43:44.371Z,45.72
2024-03-02T11:48:46.549Z,51.23
2024-03-02T11:58:53.737Z,55.28
2024-03-02T12:03:56.163Z,55.33
2024-03-02T12:08:58.271Z,47.00
2024-03-02T12:14:00.256Z,52.30
2024-03-02T12:19:02.261Z,52.67
2024-03-02T12:24:04.391Z,47.50
2024-03-02T12:29:06.739Z,49.38
2024-03-02T12:34:09.051Z,53.47
2024-03-02T12:39:11.027Z,46.55
2024-03-02T12:44:13.091Z,48.10
2024-03-02T12:49:16.159Z,48.28
2024-03-02T12:54:18.367Z,45.60
2024-03-02T12:59:24.815Z,44.33
2024-03-02T13:04:27.285Z,45.60
2024-03-02T13:09:29.370Z,43.63
2024-03-02T13:14:34.330Z,46.45
2024-03-02T13:19:36.693Z,49.38
2024-03-02T13:24:38.631Z,48.88
2024-03-02T13:29:40.728Z,45.67
2024-03-02T13:34:43.116Z,42.33
2024-03-02T13:39:45.092Z,39.58
2024-03-02T13:44:47.457Z,45.50
2024-03-02T13:49:49.964Z,45.92
2024-03-02T13:59:54.358Z,42.72
2024-03-02T14:09:58.436Z,34.25
2024-03-02T14:15:00.408Z,28.92
2024-03-02T14:20:02.471Z,38.93
2024-03-02T14:25:06.952Z,37.40
2024-03-02T14:30:09.817Z,35.80
2024-03-02T14:40:14.015Z,44.85
2024-03-02T14:45:16.035Z,41.53
2024-03-02T14:50:18.114Z,37.25
2024-03-02T14:55:20.177Z,37.20
2024-03-02T15:00:23.516Z,41.70
2024-03-02T15:05:25.739Z,39.13
2024-03-02T15:10:27.703Z,39.70
2024-03-02T15:15:29.653Z,40.53
2024-03-02T15:20:31.634Z,43.63
2024-03-02T15:25:33.794Z,51.73
2024-03-02T15:30:35.892Z,40.85
2024-03-02T15:35:38.024Z,44.20
2024-03-02T15:40:58.567Z,45.60
2024-03-02T15:46:00.719Z,42.95
2024-03-02T15:51:05.745Z,43.97
2024-03-02T15:56:09.997Z,41.72
2024-03-02T16:01:12.277Z,49.13
2024-03-02T16:06:14.394Z,39.25
2024-03-02T16:11:16.565Z,45.17
2024-03-02T16:16:18.756Z,42.08
2024-03-02T16:21:21.516Z,43.50
2024-03-02T16:26:24.223Z,45.08
2024-03-02T16:31:26.195Z,47.95
2024-03-02T16:36:28.227Z,48.53
2024-03-02T16:41:30.247Z,47.28
2024-03-02T16:46:32.161Z,41.80
2024-03-02T16:51:43.752Z,41.95
2024-03-02T16:56:45.924Z,43.08
2024-03-02T17:01:48.016Z,37.92
2024-03-02T17:06:50.268Z,47.13
2024-03-02T17:11:52.412Z,42.60
2024-03-02T17:16:54.497Z,45.75
2024-03-02T17:21:56.520Z,37.38
2024-03-02T17:26:58.605Z,42.30
2024-03-02T17:32:00.701Z,40.90
2024-03-02T17:37:02.893Z,40.40
2024-03-02T17:42:05.296Z,48.45
2024-03-02T17:47:07.533Z,43.33
2024-03-02T17:52:10.925Z,41.88
2024-03-02T17:57:12.951Z,42.35
2024-03-02T18:02:14.974Z,31.55
2024-03-02T18:07:17.132Z,32.60
2024-03-02T18:12:19.168Z,36.03
2024-03-02T18:17:21.128Z,25.57
2024-03-02T18:22:23.184Z,33.05
2024-03-02T18:27:25.175Z,35.17
2024-03-02T18:32:27.097Z,38.17
2024-03-02T18:37:29.036Z,32.70
2024-03-02T18:42:49.481Z,32.97
2024-03-02T18:47:51.479Z,34.30
2024-03-02T18:52:53.441Z,37.83
2024-03-02T18:57:55.550Z,39.67
2024-03-02T19:02:57.505Z,37.97
2024-03-02T19:07:59.449Z,33.20
2024-03-02T19:13:01.581Z,29.00
2024-03-02T19:18:03.858Z,27.88
2024-03-02T19:23:05.988Z,34.13
2024-03-02T19:28:08.049Z,33.25
2024-03-02T19:33:10.151Z,34.67
2024-03-02T19:38:12.204Z,20.98
2024-03-02T19:43:14.205Z,43.90
2024-03-02T19:48:34.905Z,30.52
2024-03-02T19:53:36.930Z,34.72
2024-03-02T19:58:38.961Z,29.38
2024-03-02T20:03:41.093Z,31.35
2024-03-02T20:08:43.095Z,33.65
2024-03-02T20:13:45.133Z,34.65
2024-03-02T20:18:47.181Z,31.67
2024-03-02T20:23:49.475Z,30.45
2024-03-02T20:29:10.152Z,37.05
2024-03-02T20:34:12.340Z,35.35
2024-03-02T20:39:14.579Z,39.22
2024-03-02T20:44:17.186Z,37.78
2024-03-02T20:49:19.554Z,39.80
2024-03-02T20:54:21.658Z,37.92
2024-03-02T20:59:23.638Z,42.63
2024-03-02T21:04:25.623Z,37.65
2024-03-02T21:09:27.745Z,39.83
2024-03-02T21:14:29.895Z,33.65
2024-03-02T21:19:31.918Z,38.25
2024-03-02T21:24:34.401Z,36.03
2024-03-02T21:29:36.733Z,40.95
2024-03-02T21:34:38.938Z,34.88
2024-03-02T21:39:46.918Z,38.30
2024-03-02T21:44:49.659Z,31.15
2024-03-02T21:49:51.700Z,29.17
2024-03-02T21:54:53.892Z,33.67
2024-03-02T22:04:58.673Z,31.33
2024-03-02T22:10:00.758Z,28.88
2024-03-02T22:15:02.937Z,26.40
2024-03-02T22:20:06.687Z,27.83
2024-03-02T22:30:11.322Z,24.02
2024-03-02T22:40:15.441Z,25.77
2024-03-02T22:45:18.133Z,29.27
2024-03-02T22:50:20.262Z,25.38
2024-03-02T22:55:22.395Z,25.73
2024-03-02T23:00:24.507Z,28.83
2024-03-02T23:05:26.531Z,29.48
2024-03-02T23:10:28.793Z,25.92
2024-03-02T23:15:31.718Z,26.40
2024-03-02T23:20:33.969Z,24.42
2024-03-02T23:25:36.127Z,23.85
2024-03-02T23:30:38.300Z,27.70
2024-03-02T23:35:40.535Z,33.53
2024-03-02T23:40:42.742Z,26.10
2024-03-02T23:45:44.880Z,20.90
2024-03-02T23:50:47.036Z,24.92
2024-03-02T23:55:52.691Z,22.67
